Time;durP1;ratioP1;P1;durP2;ratioP2;P2;SDS_P1;SDS_P2;PMS_P1;PMS_P2;Temp;Humidity;BMP_temperature;BMP_pressure;BME280_temperature;BME280_humidity;BME280_pressure;Samples;Min_cycle;Max_cycle;Signal;HPM_P1;HPM_P2
2023/05/27 00:02:17;;;;;;;6.70;3.13;;;;;;;10.72;56.44;101629.78;4966686;28;20066;-48
2023/05/27 00:04:44;;;;;;;10.85;3.67;;;;;;;10.72;57.10;101637.56;4962283;28;20098;-46
2023/05/27 00:07:10;;;;;;;11.85;3.42;;;;;;;10.74;56.88;101643.63;4967682;28;20101;-50
2023/05/27 00:09:37;;;;;;;11.35;3.42;;;;;;;10.64;57.15;101637.38;4967122;28;20058;-49
2023/05/27 00:12:04;;;;;;;8.95;3.78;;;;;;;10.61;56.83;101633.84;4966485;28;20042;-48
2023/05/27 00:14:31;;;;;;;10.70;2.90;;;;;;;10.57;57.10;101629.44;4967116;28;20055;-47
2023/05/27 00:16:57;;;;;;;8.45;3.65;;;;;;;10.53;56.36;101634.56;4967288;28;20047;-49
2023/05/27 00:19:24;;;;;;;11.25;2.85;;;;;;;10.50;56.45;101639.66;4966801;28;20042;-50
2023/05/27 00:21:52;;;;;;;12.90;3.28;;;;;;;10.48;56.52;101636.16;4964418;28;20140;-47
2023/05/27 00:24:20;;;;;;;8.25;2.97;;;;;;;10.50;56.58;101629.28;4967353;28;20097;-46
2023/05/27 00:26:47;;;;;;;5.95;2.67;;;;;;;10.45;56.94;101620.53;4966912;28;20708;-47
2023/05/27 00:29:16;;;;;;;8.95;3.05;;;;;;;10.44;56.58;101623.94;4967215;28;20047;-50
2023/05/27 00:31:43;;;;;;;10.13;3.22;;;;;;;10.41;56.77;101623.88;4966666;28;20129;-50
2023/05/27 00:34:09;;;;;;;7.93;3.13;;;;;;;10.35;57.10;101616.84;4966227;28;20055;-50
2023/05/27 00:36:36;;;;;;;7.10;2.95;;;;;;;10.29;57.86;101614.09;4965315;28;20046;-51
2023/05/27 00:39:03;;;;;;;9.43;4.00;;;;;;;10.26;57.62;101614.91;4966789;28;20042;-46
2023/05/27 00:41:30;;;;;;;11.23;3.10;;;;;;;10.24;57.45;101606.19;4967452;28;20135;-48
2023/05/27 00:43:57;;;;;;;12.10;3.70;;;;;;;10.27;57.67;101608.88;4966675;28;20050;-47
2023/05/27 00:46:24;;;;;;;10.55;2.67;;;;;;;10.29;57.17;101612.38;4966380;28;20050;-49
2023/05/27 00:48:51;;;;;;;6.15;2.42;;;;;;;10.31;57.58;101609.84;4966146;28;20086;-47
2023/05/27 00:51:18;;;;;;;10.48;3.00;;;;;;;10.32;57.32;101600.34;4964677;28;20058;-50
2023/05/27 00:53:46;;;;;;;7.68;3.15;;;;;;;10.33;56.97;101599.50;4966937;28;20055;-45
2023/05/27 00:56:15;;;;;;;9.55;3.15;;;;;;;10.32;57.44;101597.75;4966710;28;20051;-51
2023/05/27 00:58:43;;;;;;;10.43;2.75;;;;;;;10.32;57.36;101605.50;4966969;28;20053;-47
2023/05/27 01:01:10;;;;;;;9.95;3.22;;;;;;;10.28;57.15;101602.88;4966633;28;20143;-50
2023/05/27 01:03:38;;;;;;;6.72;2.83;;;;;;;10.27;57.47;101595.94;4966667;28;20052;-49
2023/05/27 01:06:24;;;;;;;12.63;3.35;;;;;;;10.23;57.63;101594.09;4965612;28;20050;-49
2023/05/27 01:11:44;;;;;;;8.15;1.98;;;;;;;10.22;56.72;101589.78;5023881;28;20402;-49
2023/05/27 01:14:14;;;;;;;7.45;2.08;;;;;;;10.21;57.71;101585.44;5018424;28;20208;-46
2023/05/27 01:16:44;;;;;;;11.02;2.25;;;;;;;10.18;57.60;101587.94;5006152;28;20422;-49
2023/05/27 01:19:16;;;;;;;8.25;2.25;;;;;;;10.19;57.79;101594.88;5012467;28;20566;-47
2023/05/27 01:21:50;;;;;;;13.15;2.50;;;;;;;10.16;57.68;101587.03;5010829;28;20064;-44
2023/05/27 01:24:17;;;;;;;9.85;1.92;;;;;;;10.14;57.85;101583.53;5011141;28;20137;-46
2023/05/27 01:26:44;;;;;;;8.10;1.60;;;;;;;10.13;57.45;101582.66;5016155;28;20050;-48
2023/05/27 01:29:11;;;;;;;10.57;1.77;;;;;;;10.13;57.11;101584.34;5010744;28;20038;-48
2023/05/27 01:31:43;;;;;;;11.23;4.05;;;;;;;10.11;56.84;101578.28;5018578;28;20465;-47
2023/05/27 01:34:14;;;;;;;10.98;1.77;;;;;;;10.07;57.17;101579.94;4999625;28;20141;-49
2023/05/27 01:36:47;;;;;;;15.55;2.10;;;;;;;10.03;57.48;101583.25;5006849;28;20045;-47
2023/05/27 01:39:15;;;;;;;6.72;2.42;;;;;;;10.01;57.05;101588.44;5013652;28;20042;-48
2023/05/27 01:41:45;;;;;;;6.15;1.25;;;;;;;9.98;57.08;101583.16;5004425;28;20082;-50
2023/05/27 01:44:16;;;;;;;7.78;1.83;;;;;;;9.97;57.54;101581.41;5007881;28;20046;-46
2023/05/27 01:46:44;;;;;;;10.75;1.90;;;;;;;9.93;57.42;101582.16;5002317;28;20050;-46
2023/05/27 01:49:11;;;;;;;7.75;1.90;;;;;;;9.90;57.88;101584.69;5003360;28;20077;-46
2023/05/27 01:51:38;;;;;;;8.85;1.92;;;;;;;9.87;57.49;101571.69;5001654;28;20042;-47
2023/05/27 01:54:04;;;;;;;10.43;1.90;;;;;;;9.82;57.63;101570.66;5001608;28;20045;-46
2023/05/27 01:56:31;;;;;;;6.68;1.98;;;;;;;9.80;57.67;101567.19;4993629;28;20058;-45
2023/05/27 01:58:57;;;;;;;11.88;1.92;;;;;;;9.77;57.80;101568.84;4990451;28;20591;-48
2023/05/27 02:01:24;;;;;;;6.68;1.73;;;;;;;9.74;57.78;101571.38;4981646;28;20046;-46
2023/05/27 02:03:51;;;;;;;9.82;2.13;;;;;;;9.71;57.79;101563.53;4981444;28;20073;-48
2023/05/27 02:06:18;;;;;;;7.60;1.70;;;;;;;9.67;58.38;101561.69;4987405;28;20046;-45
2023/05/27 02:08:45;;;;;;;9.10;2.58;;;;;;;9.66;57.92;101559.94;5006895;28;20054;-48
2023/05/27 02:11:12;;;;;;;10.95;1.80;;;;;;;9.64;58.30;101561.63;5006683;28;20052;-47
2023/05/27 02:13:41;;;;;;;10.50;1.88;;;;;;;9.62;58.37;101559.00;5017350;28;20060;-47
2023/05/27 02:16:07;;;;;;;14.00;2.25;;;;;;;9.62;58.27;101563.28;5009288;28;20132;-48
2023/05/27 02:18:35;;;;;;;6.60;1.75;;;;;;;9.60;58.51;101559.78;5003943;28;20521;-46
2023/05/27 02:21:05;;;;;;;6.82;1.63;;;;;;;9.58;58.24;101566.63;5005228;28;20168;-47
2023/05/27 02:23:33;;;;;;;;;;;;;;;9.43;58.91;101562.81;4999134;28;20598;-47
2023/05/27 02:26:00;;;;;;;6.25;1.70;;;;;;;9.51;58.19;101560.41;4993022;28;19925;-49
2023/05/27 02:28:27;;;;;;;15.00;2.25;;;;;;;9.52;58.71;101557.88;4994705;28;20065;-47
2023/05/27 02:30:54;;;;;;;8.15;1.60;;;;;;;9.51;58.46;101555.25;4996971;28;20057;-46
2023/05/27 02:33:20;;;;;;;8.85;1.75;;;;;;;9.45;58.10;101550.78;4990635;28;20042;-48
2023/05/27 02:35:47;;;;;;;11.10;3.15;;;;;;;9.42;58.43;101555.88;4993704;28;20478;-46
2023/05/27 02:38:14;;;;;;;8.25;2.10;;;;;;;9.38;58.28;101556.63;4999610;28;20046;-47
2023/05/27 02:40:40;;;;;;;8.00;2.15;;;;;;;9.36;58.46;101550.56;4993636;28;20046;-46
2023/05/27 02:43:08;;;;;;;9.63;1.80;;;;;;;9.32;58.61;101553.91;5000927;28;20042;-48
2023/05/27 02:45:34;;;;;;;8.48;1.95;;;;;;;9.26;58.30;101552.88;4997742;28;20042;-47
2023/05/27 02:48:01;;;;;;;6.38;1.95;;;;;;;9.23;58.54;101551.94;5002183;28;20049;-46
2023/05/27 02:50:28;;;;;;;8.50;2.10;;;;;;;9.19;58.64;101552.69;4998184;28;20046;-49
2023/05/27 02:52:55;;;;;;;5.10;1.67;;;;;;;9.15;58.49;101549.13;4996001;28;20086;-46
2023/05/27 02:55:21;;;;;;;9.65;1.90;;;;;;;9.12;57.95;101546.50;4992938;28;20494;-46
2023/05/27 02:57:48;;;;;;;6.63;1.90;;;;;;;9.05;58.35;101542.84;4995294;28;20042;-46
2023/05/27 03:00:15;;;;;;;12.73;2.08;;;;;;;9.02;59.05;101544.47;4990198;28;20039;-44
2023/05/27 03:02:41;;;;;;;7.80;1.52;;;;;;;8.99;58.22;101543.53;4998360;28;20129;-49
2023/05/27 03:05:08;;;;;;;16.30;2.92;;;;;;;8.95;58.47;101544.28;4999491;28;20049;-46
2023/05/27 03:07:35;;;;;;;8.20;1.90;;;;;;;8.91;59.05;101537.28;5000378;28;20536;-47
2023/05/27 03:10:02;;;;;;;10.88;1.52;;;;;;;8.88;58.78;101542.34;4997711;28;20034;-51
2023/05/27 03:12:29;;;;;;;11.85;2.78;;;;;;;8.83;59.08;101544.84;4992826;28;20526;-47
2023/05/27 03:14:55;;;;;;;9.30;2.22;;;;;;;8.78;59.42;101540.38;4993656;28;20046;-49
2023/05/27 03:17:22;;;;;;;9.00;1.90;;;;;;;8.74;58.78;101535.09;4995120;28;20050;-50
2023/05/27 03:19:48;;;;;;;7.57;1.83;;;;;;;8.69;59.30;101528.94;4998185;28;20495;-51
2023/05/27 03:22:15;;;;;;;6.13;1.50;;;;;;;8.65;58.97;101534.81;5001230;28;20042;-49
2023/05/27 03:24:42;;;;;;;3.80;1.67;;;;;;;8.58;59.46;101527.75;4994101;28;20749;-48
2023/05/27 03:27:09;;;;;;;4.88;1.67;;;;;;;8.53;58.72;101524.09;4997013;28;20046;-50
2023/05/27 03:29:35;;;;;;;5.05;1.38;;;;;;;8.47;58.20;101528.25;4995149;28;20061;-49
2023/05/27 03:32:02;;;;;;;7.80;1.55;;;;;;;8.44;59.08;101535.06;4996761;28;20109;-47
2023/05/27 03:34:29;;;;;;;6.63;1.58;;;;;;;8.40;58.52;101528.91;4994715;28;20104;-49
2023/05/27 03:36:55;;;;;;;9.00;2.03;;;;;;;8.35;58.39;101525.31;4996332;28;20043;-48
2023/05/27 03:39:22;;;;;;;6.28;1.92;;;;;;;8.33;59.72;101529.53;4996869;28;20076;-50
2023/05/27 03:41:49;;;;;;;6.35;1.90;;;;;;;8.31;58.86;101523.47;4999020;28;20104;-48
2023/05/27 03:44:15;;;;;;;6.72;1.75;;;;;;;8.26;59.61;101517.28;4991186;28;20050;-48
2023/05/27 03:46:42;;;;;;;9.00;2.22;;;;;;;8.24;59.92;101517.22;4996434;28;20202;-47
2023/05/27 03:49:08;;;;;;;10.88;2.13;;;;;;;8.23;59.56;101511.22;5002596;28;20075;-49
2023/05/27 03:51:35;;;;;;;11.63;2.15;;;;;;;8.21;59.76;101512.84;4997523;28;20059;-50
2023/05/27 03:54:02;;;;;;;9.07;2.30;;;;;;;8.20;60.12;101516.28;4993650;28;20062;-51
2023/05/27 03:56:29;;;;;;;8.93;2.13;;;;;;;8.19;59.65;101509.38;4996096;28;20405;-50
2023/05/27 03:58:56;;;;;;;7.38;3.55;;;;;;;8.19;59.96;101511.94;4989033;28;20042;-48
2023/05/27 04:01:23;;;;;;;9.75;2.72;;;;;;;8.19;59.53;101509.38;4997947;28;20046;-51
2023/05/27 04:03:50;;;;;;;6.85;1.80;;;;;;;8.18;60.29;101512.75;4995591;28;20549;-49
2023/05/27 04:06:16;;;;;;;9.82;1.98;;;;;;;8.18;59.50;101515.34;4996640;28;20046;-50
2023/05/27 04:08:43;;;;;;;10.63;2.38;;;;;;;8.19;60.31;101514.53;4989158;28;20050;-47
2023/05/27 04:11:12;;;;;;;7.78;2.05;;;;;;;8.21;60.41;101522.31;4997082;28;20046;-50
2023/05/27 04:13:40;;;;;;;10.20;3.28;;;;;;;8.20;59.42;101516.28;4993022;28;20445;-48
2023/05/27 04:16:07;;;;;;;10.50;3.10;;;;;;;8.18;59.43;101522.22;4994584;28;20385;-49
2023/05/27 04:18:35;;;;;;;8.65;2.42;;;;;;;8.16;59.94;101519.59;4994173;28;20460;-48
2023/05/27 04:21:02;;;;;;;9.00;2.55;;;;;;;8.16;59.93;101524.75;4992909;28;20347;-47
2023/05/27 04:23:28;;;;;;;14.05;2.53;;;;;;;8.17;60.58;101520.47;4997617;28;20138;-46
2023/05/27 04:25:55;;;;;;;10.52;2.35;;;;;;;8.20;60.09;101521.44;4993265;28;20145;-49
2023/05/27 04:28:22;;;;;;;7.72;2.03;;;;;;;8.22;60.18;101524.94;4987734;28;20117;-46
2023/05/27 04:30:50;;;;;;;14.60;2.58;;;;;;;8.26;60.33;101519.84;5002942;28;20042;-51
2023/05/27 04:33:17;;;;;;;9.93;2.03;;;;;;;8.27;60.95;101519.91;4988102;28;20042;-53
2023/05/27 04:35:44;;;;;;;9.98;3.00;;;;;;;8.30;60.92;101521.69;4999687;28;20053;-48
2023/05/27 04:38:16;;;;;;;11.20;2.65;;;;;;;8.32;60.75;101525.22;4998103;28;20089;-49
2023/05/27 04:40:46;;;;;;;12.73;2.38;;;;;;;8.33;61.01;101516.63;4990744;28;20050;-47
2023/05/27 04:43:14;;;;;;;10.02;2.45;;;;;;;8.36;61.11;101516.75;4986138;28;20665;-49
2023/05/27 04:45:41;;;;;;;12.18;2.90;;;;;;;8.37;60.20;101513.31;4989368;28;20064;-49
2023/05/27 04:48:10;;;;;;;10.75;2.17;;;;;;;8.39;60.52;101516.84;4997399;28;20131;-47
2023/05/27 04:50:36;;;;;;;10.88;2.25;;;;;;;8.42;60.49;101513.47;4997474;28;20141;-48
2023/05/27 04:53:03;;;;;;;12.48;2.25;;;;;;;8.45;61.44;101510.97;4996788;28;20042;-52
2023/05/27 04:55:33;;;;;;;9.23;2.13;;;;;;;8.48;61.22;101516.25;4990168;28;20054;-50
2023/05/27 04:58:03;;;;;;;8.13;2.17;;;;;;;8.51;61.49;101511.13;4993054;28;20050;-48
2023/05/27 05:03:21;;;;;;;13.48;2.53;;;;;;;8.60;61.05;101514.03;4969676;28;20057;-50
2023/05/27 05:05:52;;;;;;;11.57;2.92;;;;;;;8.64;61.81;101517.56;4994965;28;20474;-51
2023/05/27 05:08:19;;;;;;;10.60;2.72;;;;;;;8.67;61.39;101517.66;5002147;28;20050;-48
2023/05/27 05:10:47;;;;;;;13.93;2.47;;;;;;;8.71;61.96;101519.50;4991493;28;20558;-49
2023/05/27 05:13:15;;;;;;;8.20;2.03;;;;;;;8.79;61.80;101521.44;4999600;28;20056;-49
2023/05/27 05:15:43;;;;;;;12.02;2.15;;;;;;;8.89;61.52;101522.56;4995779;28;20539;-48
2023/05/27 05:18:11;;;;;;;10.48;2.75;;;;;;;8.96;61.80;101525.38;4999730;28;20046;-49
2023/05/27 05:20:38;;;;;;;14.32;2.60;;;;;;;9.03;61.81;101516.09;4990893;28;20053;-47
2023/05/27 05:23:07;;;;;;;9.35;2.53;;;;;;;9.14;62.24;101524.13;4999134;28;20497;-48
2023/05/27 05:25:37;;;;;;;8.48;2.17;;;;;;;9.26;61.72;101519.28;4994082;28;20053;-50
2023/05/27 05:28:05;;;;;;;6.28;2.00;;;;;;;9.36;61.94;101515.22;4995971;28;20413;-50
2023/05/27 05:30:32;;;;;;;9.15;1.33;;;;;;;9.45;61.19;101524.94;4990067;28;20058;-49
2023/05/27 05:32:59;;;;;;;6.07;1.73;;;;;;;9.56;61.81;101524.34;4996330;28;20042;-49
2023/05/27 05:35:26;;;;;;;5.45;1.23;;;;;;;9.64;61.14;101525.41;4999314;28;20050;-48
2023/05/27 05:37:52;;;;;;;10.90;2.10;;;;;;;9.70;61.16;101530.75;4997804;28;20050;-47
2023/05/27 05:40:21;;;;;;;9.23;2.75;;;;;;;9.79;61.04;101524.03;4999327;28;20046;-47
2023/05/27 05:42:48;;;;;;;11.70;2.25;;;;;;;9.83;61.29;101515.50;4998946;28;20061;-49
2023/05/27 05:45:14;;;;;;;6.63;2.20;;;;;;;9.90;61.44;101523.44;4993160;28;20046;-51
2023/05/27 05:47:41;;;;;;;11.60;2.20;;;;;;;9.99;61.53;101517.63;4998447;28;20058;-50
2023/05/27 05:50:08;;;;;;;8.50;2.70;;;;;;;10.08;60.98;101521.25;4987636;28;20208;-49
2023/05/27 05:52:35;;;;;;;8.60;2.97;;;;;;;10.19;61.43;101513.72;4999264;28;20069;-48
2023/05/27 05:55:02;;;;;;;8.40;2.42;;;;;;;10.28;61.39;101520.00;4992061;28;20046;-51
2023/05/27 05:57:31;;;;;;;15.18;2.85;;;;;;;10.37;61.51;101523.63;4996084;28;20054;-49
2023/05/27 06:00:01;;;;;;;21.20;3.22;;;;;;;10.43;61.91;101517.72;4991738;28;20553;-48
2023/05/27 06:02:28;;;;;;;13.23;3.20;;;;;;;10.47;61.83;101520.41;4998225;28;20053;-46
2023/05/27 06:04:55;;;;;;;16.98;2.70;;;;;;;10.54;62.16;101514.53;4992102;28;20149;-49
2023/05/27 06:07:22;;;;;;;14.25;2.47;;;;;;;10.61;62.40;101522.44;5000617;28;20050;-47
2023/05/27 06:09:48;;;;;;;10.88;2.40;;;;;;;10.67;61.79;101527.72;4997529;28;20062;-44
2023/05/27 06:12:15;;;;;;;13.10;2.90;;;;;;;10.74;62.32;101518.38;5002156;28;20042;-47
2023/05/27 06:14:41;;;;;;;11.05;3.20;;;;;;;10.79;61.80;101527.13;4999251;28;20046;-47
2023/05/27 06:17:08;;;;;;;19.27;3.15;;;;;;;10.82;62.60;101516.81;4999890;28;20420;-47
2023/05/27 06:19:35;;;;;;;13.05;3.35;;;;;;;10.85;62.12;101521.19;4990180;28;20073;-50
2023/05/27 06:22:02;;;;;;;13.70;2.80;;;;;;;10.88;62.43;101523.84;5001578;28;20078;-45
2023/05/27 06:24:28;;;;;;;13.73;2.80;;;;;;;10.91;62.38;101521.31;4999238;28;20050;-51
2023/05/27 06:26:55;;;;;;;17.75;3.70;;;;;;;11.02;63.14;101516.34;4991090;28;20150;-47
2023/05/27 06:29:22;;;;;;;17.80;3.10;;;;;;;11.12;62.54;101519.97;5000762;28;20707;-50
2023/05/27 06:31:49;;;;;;;14.63;2.97;;;;;;;11.19;62.78;101520.09;4993796;28;20038;-47
2023/05/27 06:34:16;;;;;;;13.13;2.97;;;;;;;11.27;63.27;101512.47;4996450;28;20069;-48
2023/05/27 06:36:43;;;;;;;18.67;3.50;;;;;;;11.33;62.97;101511.72;4999304;28;20050;-48
2023/05/27 06:39:09;;;;;;;14.60;2.92;;;;;;;11.37;63.08;101515.22;4999543;28;20042;-52
2023/05/27 06:41:36;;;;;;;14.00;3.08;;;;;;;11.39;63.78;101519.56;4993190;28;20054;-45
2023/05/27 06:44:03;;;;;;;14.27;3.38;;;;;;;11.46;62.72;101515.41;4991884;28;20050;-48
2023/05/27 06:46:29;;;;;;;11.40;2.95;;;;;;;11.50;63.89;101505.94;4986217;28;20077;-50
2023/05/27 06:48:56;;;;;;;16.27;2.90;;;;;;;11.55;63.73;101515.53;4990951;28;20046;-51
2023/05/27 06:51:23;;;;;;;12.68;3.30;;;;;;;11.62;64.38;101513.06;4998305;28;20050;-46
2023/05/27 06:53:49;;;;;;;12.32;3.35;;;;;;;11.62;65.02;101516.50;4989043;28;20047;-47
2023/05/27 06:56:16;;;;;;;12.88;2.60;;;;;;;11.70;64.25;101503.66;5000174;28;20049;-48
2023/05/27 06:58:43;;;;;;;13.50;2.90;;;;;;;11.67;65.29;101507.09;4990321;28;20043;-48
2023/05/27 07:01:10;;;;;;;9.73;2.60;;;;;;;11.73;65.45;101514.09;4994101;28;20042;-50
2023/05/27 07:03:36;;;;;;;7.97;2.55;;;;;;;11.92;66.05;101509.22;5001292;28;20054;-47
2023/05/27 07:06:03;;;;;;;10.75;2.47;;;;;;;12.11;65.80;101499.09;5000893;28;20045;-45
2023/05/27 07:08:30;;;;;;;12.75;2.63;;;;;;;12.28;66.22;101508.00;4999333;28;20046;-47
2023/05/27 07:10:57;;;;;;;9.68;3.00;;;;;;;12.57;65.15;101504.91;4990716;28;20092;-50
2023/05/27 07:13:23;;;;;;;16.23;3.40;;;;;;;12.91;65.11;101500.97;4987230;28;20610;-51
2023/05/27 07:15:50;;;;;;;12.55;2.25;;;;;;;13.23;64.38;101498.69;4996399;28;20043;-48
2023/05/27 07:18:17;;;;;;;9.57;2.42;;;;;;;13.40;63.78;101482.34;4998882;28;20050;-48
2023/05/27 07:20:44;;;;;;;13.13;2.65;;;;;;;13.61;63.05;101481.69;4991124;28;20134;-50
2023/05/27 07:23:11;;;;;;;14.32;2.83;;;;;;;13.71;63.04;101487.84;4989130;28;20052;-47
2023/05/27 07:25:37;;;;;;;9.85;1.95;;;;;;;13.97;62.00;101488.88;4992013;28;20081;-51
2023/05/27 07:28:04;;;;;;;10.63;3.00;;;;;;;14.08;62.58;101492.41;4996632;28;20046;-49
2023/05/27 07:30:31;;;;;;;15.15;2.17;;;;;;;14.24;62.07;101487.28;5002754;28;20049;-47
2023/05/27 07:32:57;;;;;;;10.35;2.38;;;;;;;14.47;61.52;101478.72;4995541;28;20049;-46
2023/05/27 07:35:24;;;;;;;11.70;2.38;;;;;;;14.53;60.88;101478.75;5002960;28;20124;-45
2023/05/27 07:37:51;;;;;;;8.85;2.25;;;;;;;14.50;60.98;101478.72;4989527;28;20057;-48
2023/05/27 07:40:17;;;;;;;10.82;2.58;;;;;;;14.53;61.06;101479.59;4981956;28;20047;-51
2023/05/27 07:42:44;;;;;;;8.43;2.33;;;;;;;14.68;60.71;101457.06;4975241;28;20061;-50
2023/05/27 07:45:11;;;;;;;12.27;3.00;;;;;;;14.64;60.02;101463.13;4982124;28;20138;-48
2023/05/27 07:47:37;;;;;;;9.55;2.25;;;;;;;14.61;59.67;101458.78;4999114;28;20054;-49
2023/05/27 07:50:05;;;;;;;9.27;2.90;;;;;;;14.80;60.42;101466.69;4999320;28;20100;-51
2023/05/27 07:52:31;;;;;;;11.93;3.28;;;;;;;14.92;59.88;101459.75;4996396;28;20058;-50
2023/05/27 07:54:58;;;;;;;10.70;2.22;;;;;;;15.10;58.75;101454.53;4987479;28;20078;-47
2023/05/27 07:57:25;;;;;;;15.02;2.83;;;;;;;15.37;59.36;101472.84;4987709;28;20046;-52
2023/05/27 07:59:51;;;;;;;10.32;2.15;;;;;;;15.38;57.93;101465.03;4999395;28;20141;-48
2023/05/27 08:02:19;;;;;;;7.15;2.67;;;;;;;15.37;57.93;101458.03;4984187;28;20042;-49
2023/05/27 08:04:46;;;;;;;21.35;2.95;;;;;;;15.36;58.49;101450.22;4988684;28;20104;-52
2023/05/27 08:07:13;;;;;;;13.57;4.40;;;;;;;15.52;58.29;101451.97;4985135;28;20461;-50
2023/05/27 08:09:39;;;;;;;6.72;2.13;;;;;;;15.61;57.42;101458.03;4991320;28;20058;-53
2023/05/27 08:12:06;;;;;;;10.55;3.30;;;;;;;15.63;57.57;101454.56;4993097;28;20408;-52
2023/05/27 08:14:34;;;;;;;8.73;2.90;;;;;;;15.96;56.93;101451.03;4988458;28;20498;-49
2023/05/27 08:17:01;;;;;;;7.88;2.63;;;;;;;16.03;56.46;101450.13;4997629;28;20050;-48
2023/05/27 08:19:28;;;;;;;7.50;2.35;;;;;;;16.26;57.04;101443.97;4984944;28;20053;-50
2023/05/27 08:21:57;;;;;;;11.15;2.40;;;;;;;16.47;55.78;101447.34;4992220;28;20093;-48
2023/05/27 08:24:24;;;;;;;11.38;2.92;;;;;;;16.61;56.13;101442.91;4994539;28;20053;-49
2023/05/27 08:26:50;;;;;;;8.98;2.30;;;;;;;16.57;54.81;101441.19;4994349;28;20061;-48
2023/05/27 08:29:17;;;;;;;12.82;3.10;;;;;;;16.52;54.85;101440.38;4994968;28;20046;-49
2023/05/27 08:31:44;;;;;;;10.32;2.28;;;;;;;16.57;54.79;101428.13;4989723;28;20054;-48
2023/05/27 08:34:10;;;;;;;14.57;2.42;;;;;;;16.73;55.45;101428.03;4992929;28;20052;-52
2023/05/27 08:36:37;;;;;;;13.52;3.17;;;;;;;16.86;55.13;101424.47;4988978;28;20109;-49
2023/05/27 08:39:05;;;;;;;10.57;2.30;;;;;;;17.24;54.66;101426.81;4988399;28;20046;-49
2023/05/27 08:41:32;;;;;;;5.72;2.50;;;;;;;17.55;54.67;101421.28;4992873;28;20078;-51
2023/05/27 08:43:59;;;;;;;10.50;2.03;;;;;;;17.68;54.27;101422.94;5001770;28;20565;-50
2023/05/27 08:46:48;;;;;;;13.00;2.60;;;;;;;17.62;53.38;101419.50;4995980;28;20045;-48
2023/05/27 08:49:17;;;;;;;10.93;2.53;;;;;;;17.79;53.23;101411.44;4989855;28;20157;-48
2023/05/27 08:51:45;;;;;;;13.75;2.83;;;;;;;17.75;52.87;101415.84;4995432;28;20042;-50
2023/05/27 08:54:12;;;;;;;9.70;2.03;;;;;;;17.83;52.34;101407.91;4984689;28;20062;-46
2023/05/27 08:56:39;;;;;;;8.52;2.33;;;;;;;17.96;52.60;101409.50;4995217;28;20046;-49
2023/05/27 08:59:07;;;;;;;11.02;2.70;;;;;;;18.21;53.00;101397.88;4995779;28;20569;-49
2023/05/27 09:01:34;;;;;;;13.25;3.05;;;;;;;18.35;52.34;101405.56;4994848;28;20049;-50
2023/05/27 09:04:01;;;;;;;9.68;2.00;;;;;;;18.43;51.98;101398.44;4992116;28;20126;-47
2023/05/27 09:06:28;;;;;;;10.25;2.75;;;;;;;18.50;51.51;101400.09;4999018;28;20545;-49
2023/05/27 09:08:55;;;;;;;8.88;2.47;;;;;;;18.69;52.22;101394.59;4989400;28;20046;-47
2023/05/27 09:11:25;;;;;;;8.70;2.80;;;;;;;19.06;51.89;101402.75;4988947;28;20038;-47
2023/05/27 09:13:55;;;;;;;7.22;2.10;;;;;;;19.34;50.90;101391.78;4988277;28;20081;-47
2023/05/27 09:16:22;;;;;;;;;;;;;;;19.58;50.70;101384.34;4998982;28;20701;-49
2023/05/27 09:18:49;;;;;;;9.05;1.83;;;;;;;19.74;49.79;101388.44;4992101;28;19925;-51
2023/05/27 09:21:17;;;;;;;8.27;2.00;;;;;;;19.99;49.51;101382.69;4975292;28;20486;-52
2023/05/27 09:23:43;;;;;;;11.57;2.58;;;;;;;20.25;48.53;101380.41;4992362;28;20049;-49
2023/05/27 09:26:11;;;;;;;9.98;2.45;;;;;;;20.42;48.58;101378.25;4982313;28;20082;-48
2023/05/27 09:28:39;;;;;;;8.82;2.30;;;;;;;20.52;48.36;101376.28;4987323;28;20048;-52
2023/05/27 09:31:07;;;;;;;8.63;2.42;;;;;;;20.69;48.29;101377.66;4983641;28;20057;-49
2023/05/27 09:33:37;;;;;;;9.02;2.20;;;;;;;20.96;48.35;101375.28;4997540;28;20141;-48
2023/05/27 09:36:05;;;;;;;8.30;3.53;;;;;;;21.04;47.83;101370.66;5002785;28;20402;-50
2023/05/27 09:38:33;;;;;;;5.38;1.67;;;;;;;21.22;47.68;101367.59;4988087;28;20061;-50
2023/05/27 09:41:01;;;;;;;7.75;1.80;;;;;;;21.27;47.04;101360.41;4990607;28;20158;-54
2023/05/27 09:43:28;;;;;;;8.68;4.22;;;;;;;21.02;46.32;101361.09;4993195;28;20425;-51
2023/05/27 09:46:01;;;;;;;9.75;2.28;;;;;;;21.02;47.03;101364.59;4992525;28;20457;-50
2023/05/27 09:48:31;;;;;;;8.43;1.90;;;;;;;21.26;47.05;101358.69;4996096;28;20057;-50
2023/05/27 09:50:59;;;;;;;12.68;2.33;;;;;;;21.56;46.77;101354.38;4982439;28;20050;-50
2023/05/27 09:53:27;;;;;;;11.55;2.25;;;;;;;21.80;46.07;101348.47;4989988;28;20129;-50
2023/05/27 09:55:55;;;;;;;7.13;1.73;;;;;;;22.01;45.90;101346.97;5004390;28;20053;-52
2023/05/27 09:58:23;;;;;;;8.48;1.83;;;;;;;22.12;45.39;101348.41;4999712;28;20387;-51
2023/05/27 10:00:50;;;;;;;11.32;2.40;;;;;;;22.18;45.08;101342.94;4991569;28;20639;-51
2023/05/27 10:03:21;;;;;;;9.07;2.45;;;;;;;22.32;44.71;101342.50;4997066;28;20058;-49
2023/05/27 10:05:50;;;;;;;10.82;2.03;;;;;;;22.47;44.71;101335.88;4997252;28;20054;-48
2023/05/27 10:08:18;;;;;;;;;;;;;;;22.50;44.92;101333.16;4995396;28;20060;-50
2023/05/27 10:10:52;;;;;;;10.10;2.38;;;;;;;22.66;44.30;101337.97;4990896;28;19928;-52
2023/05/27 10:13:20;;;;;;;7.85;2.13;;;;;;;22.71;44.34;101328.97;5002608;28;20395;-49
2023/05/27 10:15:51;;;;;;;11.75;2.22;;;;;;;22.89;43.56;101328.41;4990976;28;20050;-53
2023/05/27 10:18:23;;;;;;;9.45;2.00;;;;;;;23.09;43.26;101323.28;5001420;28;20054;-49
2023/05/27 10:20:51;;;;;;;7.25;2.03;;;;;;;23.25;42.96;101322.72;4991719;28;20117;-54
2023/05/27 10:23:25;;;;;;;7.97;2.67;;;;;;;23.33;42.88;101318.03;4990924;28;20050;-51
2023/05/27 10:25:55;;;;;;;9.00;2.33;;;;;;;23.44;43.39;101322.09;4991195;28;20043;-50
2023/05/27 10:31:05;;;;;;;7.32;1.52;;;;;;;23.71;42.05;101322.00;5036846;28;20901;-46
2023/05/27 10:33:35;;;;;;;7.82;1.98;;;;;;;23.78;42.07;101317.31;5007968;28;20053;-47
2023/05/27 10:36:09;;;;;;;7.90;1.95;;;;;;;23.78;41.49;101319.97;5020828;28;20504;-49
2023/05/27 10:38:37;;;;;;;11.80;2.42;;;;;;;23.85;42.39;101309.06;5029949;28;20107;-52
2023/05/27 10:41:06;;;;;;;10.38;2.67;;;;;;;24.00;41.52;101306.75;5020606;28;20148;-50
2023/05/27 10:43:33;;;;;;;12.07;1.77;;;;;;;24.15;41.43;101300.03;5006563;28;20077;-51
2023/05/27 10:46:11;;;;;;;10.25;2.75;;;;;;;24.22;40.68;101298.00;5016977;28;20050;-52
2023/05/27 10:48:39;;;;;;;8.70;1.70;;;;;;;24.34;41.04;101300.16;5018454;28;20133;-51
2023/05/27 10:51:08;;;;;;;9.52;2.10;;;;;;;24.26;40.10;101302.25;5021964;28;20736;-51
2023/05/27 10:53:36;;;;;;;7.50;1.80;;;;;;;24.06;40.17;101298.59;5020797;28;20046;-51
2023/05/27 10:56:03;;;;;;;10.45;3.10;;;;;;;24.03;39.56;101285.47;5022860;28;20050;-53
2023/05/27 10:58:35;;;;;;;7.35;2.28;;;;;;;24.04;39.89;101284.53;5018058;28;20580;-48
2023/05/27 11:01:10;;;;;;;7.82;1.90;;;;;;;24.01;39.85;101282.00;5020806;28;20497;-50
2023/05/27 11:03:43;;;;;;;6.43;1.40;;;;;;;24.04;39.98;101281.91;5018169;28;20049;-49
2023/05/27 11:06:10;;;;;;;6.90;2.70;;;;;;;24.13;39.98;101281.56;5002641;28;20054;-48
2023/05/27 11:08:37;;;;;;;8.38;2.50;;;;;;;24.20;39.80;101281.31;5020639;28;20471;-52
2023/05/27 11:11:06;;;;;;;7.38;2.05;;;;;;;24.31;39.80;101273.78;5016514;28;20045;-51
2023/05/27 11:16:12;;;;;;;9.93;4.30;;;;;;;24.43;38.98;101263.63;5023384;28;20391;-50
2023/05/27 11:18:42;;;;;;;8.90;3.58;;;;;;;24.41;39.30;101266.31;4988751;28;20046;-52
2023/05/27 11:21:10;;;;;;;13.77;4.72;;;;;;;24.36;39.40;101255.94;4983887;28;20050;-50
2023/05/27 11:23:40;;;;;;;8.80;4.03;;;;;;;24.52;39.55;101250.84;4985261;28;20063;-48
2023/05/27 11:31:30;;;;;;;8.50;2.63;;;;;;;24.63;37.75;101242.44;5030753;28;20394;-49
2023/05/27 11:33:57;;;;;;;9.20;2.30;;;;;;;24.46;37.96;101242.31;5002776;28;20046;-47
2023/05/27 11:36:26;;;;;;;5.15;1.35;;;;;;;24.54;38.79;101242.84;5003334;28;20129;-49
2023/05/27 11:38:56;;;;;;;8.85;2.58;;;;;;;24.62;38.25;101235.44;5008961;28;20053;-48
2023/05/27 11:41:26;;;;;;;6.38;2.55;;;;;;;24.63;38.70;101237.13;5037058;28;20508;-49
2023/05/27 11:44:11;;;;;;;6.97;2.55;;;;;;;24.58;38.56;101228.53;5004950;28;20057;-49